createdAt,value
2022-09-11T00:02:08.887Z,1.30
2022-09-11T00:07:30.962Z,1.08
2022-09-11T00:12:53.082Z,1.10
2022-09-11T00:18:17.493Z,1.00
2022-09-11T00:23:39.322Z,1.00
2022-09-11T00:29:01.834Z,1.20
2022-09-11T00:34:23.683Z,1.08
2022-09-11T00:39:45.402Z,1.40
2022-09-11T00:45:09.037Z,1.13
2022-09-11T00:50:32.638Z,1.00
2022-09-11T00:56:01.680Z,1.10
2022-09-11T01:01:23.362Z,1.00
2022-09-11T01:06:46.634Z,1.17
2022-09-11T01:12:17.479Z,0.90
2022-09-11T01:18:14.987Z,0.90
2022-09-11T01:23:55.949Z,0.95
2022-09-11T01:29:39.378Z,1.30
2022-09-11T01:35:13.471Z,1.20
2022-09-11T01:40:57.569Z,1.42
2022-09-11T01:46:23.012Z,1.20
2022-09-11T01:51:47.560Z,1.00
2022-09-11T01:57:36.686Z,1.17
2022-09-11T02:03:07.461Z,1.23
2022-09-11T02:08:58.635Z,1.48
2022-09-11T02:14:25.758Z,1.40
2022-09-11T02:19:49.160Z,1.40
2022-09-11T02:25:11.553Z,1.10
2022-09-11T02:30:33.466Z,1.23
2022-09-11T02:36:05.190Z,1.45
2022-09-11T02:41:42.360Z,1.35
2022-09-11T02:47:05.595Z,1.33
2022-09-11T02:52:49.341Z,1.23
2022-09-11T02:58:26.930Z,0.90
2022-09-11T03:03:49.385Z,1.35
2022-09-11T03:09:11.153Z,1.30
2022-09-11T03:14:32.883Z,1.52
2022-09-11T03:19:54.695Z,1.20
2022-09-11T03:25:16.451Z,1.40
2022-09-11T03:30:39.655Z,1.25
2022-09-11T03:36:01.572Z,1.70
2022-09-11T03:41:23.304Z,1.60
2022-09-11T03:46:45.017Z,1.42
2022-09-11T03:52:06.824Z,1.33
2022-09-11T03:57:28.568Z,1.77
2022-09-11T04:02:50.478Z,2.03
2022-09-11T04:08:13.224Z,1.92
2022-09-11T04:13:37.495Z,1.92
2022-09-11T04:19:01.825Z,1.90
2022-09-11T04:24:23.589Z,2.10
2022-09-11T04:29:47.948Z,2.30
2022-09-11T04:35:09.772Z,2.38
2022-09-11T04:40:33.815Z,2.22
2022-09-11T04:46:03.737Z,2.40
2022-09-11T04:51:29.174Z,2.63
2022-09-11T04:56:51.213Z,2.70
2022-09-11T05:02:13.055Z,2.63
2022-09-11T05:07:35.574Z,2.47
2022-09-11T05:12:57.352Z,2.90
2022-09-11T05:18:19.227Z,2.58
2022-09-11T05:23:42.355Z,3.10
2022-09-11T05:29:09.895Z,2.50
2022-09-11T05:34:31.699Z,2.70
2022-09-11T05:39:53.569Z,3.05
2022-09-11T05:45:15.473Z,2.60
2022-09-11T05:50:38.365Z,3.25
2022-09-11T05:56:20.711Z,2.95
2022-09-11T06:01:43.213Z,2.67
2022-09-11T06:07:05.068Z,3.00
2022-09-11T06:12:28.329Z,2.70
2022-09-11T06:17:50.079Z,3.00
2022-09-11T06:23:12.141Z,2.70
2022-09-11T06:28:35.658Z,3.13
2022-09-11T06:33:57.472Z,3.38
2022-09-11T06:39:23.154Z,3.38
2022-09-11T06:44:50.084Z,3.25
2022-09-11T06:50:12.468Z,4.20
2022-09-11T06:55:35.686Z,4.07
2022-09-11T07:01:27.119Z,3.35
2022-09-11T07:06:50.154Z,4.57
2022-09-11T07:12:12.107Z,3.90
2022-09-11T07:17:33.976Z,4.20
2022-09-11T07:22:55.729Z,4.38
2022-09-11T07:28:17.471Z,4.45
2022-09-11T07:33:42.842Z,4.70
2022-09-11T07:39:05.045Z,4.70
2022-09-11T07:44:26.834Z,4.72
2022-09-11T07:49:48.798Z,4.65
2022-09-11T07:55:10.727Z,5.03
2022-09-11T08:00:36.894Z,4.53
2022-09-11T08:06:03.981Z,5.00
2022-09-11T08:11:27.767Z,4.28
2022-09-11T08:16:49.590Z,4.65
2022-09-11T08:22:11.490Z,4.63
2022-09-11T08:27:33.350Z,4.13
2022-09-11T08:32:55.196Z,4.00
2022-09-11T08:38:18.067Z,4.32
2022-09-11T08:43:50.854Z,4.50
2022-09-11T08:49:27.284Z,4.80
2022-09-11T08:54:50.612Z,5.13
2022-09-11T09:00:24.782Z,5.20
2022-09-11T09:06:25.385Z,4.40
2022-09-11T09:12:10.184Z,4.72
2022-09-11T09:17:49.156Z,4.85
2022-09-11T09:23:18.334Z,4.32
2022-09-11T09:28:45.029Z,4.45
2022-09-11T09:34:22.039Z,3.53
2022-09-11T09:39:45.123Z,3.25
2022-09-11T09:45:19.196Z,3.35
2022-09-11T09:50:44.165Z,3.55
2022-09-11T09:56:06.171Z,3.80
2022-09-11T10:01:40.053Z,3.85
2022-09-11T10:07:14.164Z,3.70
2022-09-11T10:12:36.203Z,3.88
2022-09-11T10:18:30.485Z,5.05
2022-09-11T10:24:17.620Z,4.82
2022-09-11T10:29:50.311Z,4.50
2022-09-11T10:35:12.634Z,4.80
2022-09-11T10:40:34.493Z,5.38
2022-09-11T10:46:05.097Z,5.00
2022-09-11T10:51:29.907Z,5.18
2022-09-11T10:57:13.212Z,4.80
2022-09-11T11:02:38.828Z,4.63
2022-09-11T11:08:15.459Z,4.78
2022-09-11T11:14:15.468Z,4.60
2022-09-11T11:19:51.473Z,4.88
2022-09-11T11:25:27.467Z,3.88
2022-09-11T11:31:23.786Z,4.38
2022-09-11T11:36:50.180Z,3.67
2022-09-11T11:42:22.736Z,4.20
2022-09-11T11:47:47.281Z,3.38
2022-09-11T11:53:50.345Z,4.28
2022-09-11T11:59:19.569Z,3.97
2022-09-11T12:05:03.021Z,3.83
2022-09-11T12:10:33.364Z,3.38
2022-09-11T12:16:11.457Z,3.38
2022-09-11T12:21:39.481Z,3.72
2022-09-11T12:27:35.138Z,3.53
2022-09-11T12:33:00.285Z,4.40
2022-09-11T12:38:40.771Z,4.15
2022-09-11T12:44:04.573Z,4.13
2022-09-11T12:49:27.270Z,4.43
2022-09-11T12:54:49.285Z,3.83
2022-09-11T13:00:22.899Z,4.10
2022-09-11T13:05:54.587Z,4.28
2022-09-11T13:11:38.156Z,4.43
2022-09-11T13:17:12.148Z,4.50
2022-09-11T13:22:35.184Z,4.13
2022-09-11T13:28:03.936Z,4.60
2022-09-11T13:33:29.052Z,4.50
2022-09-11T13:38:56.021Z,4.53
2022-09-11T13:44:40.408Z,4.50
2022-09-11T13:50:06.521Z,4.70
2022-09-11T13:55:28.331Z,3.85
2022-09-11T14:00:55.437Z,4.75
2022-09-11T14:06:20.553Z,4.60
2022-09-11T14:11:42.319Z,4.88
2022-09-11T14:17:04.636Z,4.00
2022-09-11T14:22:31.064Z,4.00
2022-09-11T14:27:53.126Z,3.83
2022-09-11T14:33:22.584Z,3.80
2022-09-11T14:38:44.820Z,4.20
2022-09-11T14:44:11.330Z,4.05
2022-09-11T14:49:33.200Z,3.58
2022-09-11T14:54:55.744Z,4.03
2022-09-11T15:00:19.542Z,4.25
2022-09-11T15:05:43.118Z,3.92
2022-09-11T15:11:05.013Z,4.22
2022-09-11T15:16:26.770Z,3.85
2022-09-11T15:21:48.624Z,3.30
2022-09-11T15:27:10.450Z,3.40
2022-09-11T15:32:32.348Z,3.65
2022-09-11T15:37:54.189Z,3.97
2022-09-11T15:43:15.970Z,3.53
2022-09-11T15:48:39.185Z,3.20
2022-09-11T15:54:02.497Z,3.38
2022-09-11T15:59:24.266Z,3.22
2022-09-11T16:04:51.600Z,3.40
2022-09-11T16:10:15.319Z,3.25
2022-09-11T16:15:37.199Z,3.22
2022-09-11T16:20:59.346Z,3.00
2022-09-11T16:26:24.076Z,3.28
2022-09-11T16:31:45.914Z,3.08
2022-09-11T16:37:07.755Z,3.55
2022-09-11T16:42:29.520Z,3.58
2022-09-11T16:47:52.075Z,3.55
2022-09-11T16:53:13.908Z,3.47
2022-09-11T16:58:36.584Z,3.70
2022-09-11T17:03:58.495Z,3.00
2022-09-11T17:09:20.330Z,3.42
2022-09-11T17:14:42.126Z,4.05
2022-09-11T17:20:04.494Z,4.50
2022-09-11T17:25:26.310Z,3.50
2022-09-11T17:30:48.093Z,3.90
2022-09-11T17:36:11.476Z,3.67
2022-09-11T17:41:33.367Z,3.63
2022-09-11T17:46:56.946Z,3.55
2022-09-11T17:52:21.350Z,3.78
2022-09-11T17:57:45.400Z,3.97
2022-09-11T18:03:08.050Z,3.50
2022-09-11T18:08:32.831Z,4.05
2022-09-11T18:13:54.807Z,4.63
2022-09-11T18:19:20.188Z,4.47
2022-09-11T18:24:41.996Z,5.10
2022-09-11T18:30:04.097Z,4.88
2022-09-11T18:35:26.727Z,4.03
2022-09-11T18:40:54.476Z,4.63
2022-09-11T18:46:16.435Z,4.35
2022-09-11T18:51:38.323Z,5.25
2022-09-11T18:57:00.395Z,7.50
2022-09-11T19:02:22.328Z,5.18
2022-09-11T19:07:45.480Z,5.55
2022-09-11T19:13:07.384Z,5.70
2022-09-11T19:18:29.095Z,5.72
2022-09-11T19:23:55.797Z,5.63
2022-09-11T19:29:20.159Z,6.53
2022-09-11T19:34:46.906Z,5.18
2022-09-11T19:40:09.908Z,5.30
2022-09-11T19:45:31.693Z,5.60
2022-09-11T19:50:54.059Z,5.22
2022-09-11T19:56:16.763Z,5.00
2022-09-11T20:01:38.640Z,5.18
2022-09-11T20:07:00.623Z,5.30
2022-09-11T20:12:22.503Z,5.05
2022-09-11T20:17:47.408Z,5.40
2022-09-11T20:23:10.244Z,5.43
2022-09-11T20:28:32.037Z,5.25
2022-09-11T20:33:54.723Z,5.85
2022-09-11T20:39:16.616Z,5.70
2022-09-11T20:44:38.358Z,5.10
2022-09-11T20:50:00.759Z,4.80
2022-09-11T20:55:23.030Z,5.35
2022-09-11T21:00:46.024Z,6.20
2022-09-11T21:06:08.553Z,4.93
2022-09-11T21:11:30.979Z,5.35
2022-09-11T21:16:53.140Z,5.32
2022-09-11T21:22:14.911Z,5.63
2022-09-11T21:27:36.727Z,6.28
2022-09-11T21:32:58.649Z,6.70
2022-09-11T21:38:25.892Z,6.82
2022-09-11T21:43:47.933Z,6.63
2022-09-11T21:49:10.042Z,6.57
2022-09-11T21:54:32.119Z,6.82
2022-09-11T21:59:54.419Z,6.75
2022-09-11T22:05:17.088Z,6.60
2022-09-11T22:10:47.477Z,6.05
2022-09-11T22:16:12.326Z,5.95
2022-09-11T22:21:34.123Z,5.72
2022-09-11T22:26:55.843Z,6.75
2022-09-11T22:32:17.588Z,6.28
2022-09-11T22:37:39.352Z,7.00
2022-09-11T22:43:01.183Z,7.35
2022-09-11T22:48:23.093Z,7.30
2022-09-11T22:53:45.166Z,7.63
2022-09-11T22:59:07.235Z,6.95
2022-09-11T23:04:29.000Z,7.22
2022-09-11T23:09:50.719Z,6.47
2022-09-11T23:15:12.475Z,7.20
2022-09-11T23:20:34.238Z,7.55
2022-09-11T23:25:56.007Z,7.40
2022-09-11T23:31:20.946Z,7.55
2022-09-11T23:36:43.709Z,6.82
2022-09-11T23:42:05.675Z,7.18
2022-09-11T23:47:27.426Z,7.10
2022-09-11T23:52:49.155Z,6.55
2022-09-11T23:58:10.923Z,6.75
